Nathaniel B. Palmer — WBP3210 — position and weather

sailwx.info

Track history (hours):
 
Tides and Currents Weather Stations Pressure Air Temp Water Temp Dewpoint Dewpoint Depression Visibility Wind Speed Wind Dir Waves Ship Positions

Oceanographic research ship Nathaniel B. Palmer (USA)

Contact: Ethan Norris, ethan.norris.contractor@usap.gov

Detailed information on ship capabilities available from University of Delaware's Ocean Information Center and ARCUS's ALIAS (Arctic Logistics Information and Support) project.

Owner: OFFSHORE SERVICE VESSELS, GALLIANO, LA. More information available from US FCC via Universal Licensing System and Coast Guard Vessel Documentation Center.

Last reported at 2017-Feb-19 18:00 UTC. Time now 2017-Feb-19 18:41 UTC.
Position S 59°00' W 170°00'.

Type: Other ship. MMSI: 366610000.

Wind from 280 at 29 knots

Barometer 1011.1 mb
Air temperature 6.9 ° C
Water temperature 6.4 ° C

Date/timePositionNaut miles runAvg speedWind from/ knotsBaromVisibWave heightAir tempDewpointWater temp
2017-Feb-19 18:00S 59°00' W 170°00'6 6.0 280 / 291011.1 6.9 6.4
2017-Feb-19 17:00S 59°06' W 170°00'1212.0 280 / 301010.8 6.8 6.4
2017-Feb-19 16:00S 59°18' W 170°00'6 6.0 290 / 291010.7 6.8 6.3
2017-Feb-19 15:00S 59°24' W 170°00'1212.0 280 / 291010.9 6.8 6.2
2017-Feb-19 14:00S 59°36' W 170°00'1212.0 280 / 291011.0 6.7 6.1
2017-Feb-19 13:00S 59°48' W 170°00'6 6.0 290 / 291011.1 6.6 6.1
2017-Feb-19 12:00S 59°54' W 170°00'0 0.0 290 / 301011.6 6.7 6.0
2017-Feb-19 11:00S 59°54' W 170°00'0 0.0 290 / 281012.4 6.8 6.0
2017-Feb-19 10:00S 59°54' W 170°00'0 0.0 290 / 291013.1 6.8 5.9
2017-Feb-19 09:00S 59°54' W 170°00'0 0.0 290 / 281013.8 6.8 5.9
2017-Feb-19 08:00S 59°54' W 170°00'0 0.0 300 / 281014.4 6.8 5.9
2017-Feb-19 07:00S 59°54' W 170°00'0 0.0 290 / 271015.0 6.7 5.9
2017-Feb-19 06:00S 59°54' W 170°00'0 0.0 290 / 271015.6 6.7 5.9
2017-Feb-19 05:00S 59°54' W 170°00'0 0.0 290 / 271016.5 6.7 5.9
2017-Feb-19 04:00S 59°54' W 170°00'0 0.0 290 / 261017.0 6.7 5.9
2017-Feb-19 03:00S 59°54' W 170°00'0 0.0 290 / 271017.2 6.7 5.9
2017-Feb-19 02:00S 59°54' W 170°00'0 0.0 290 / 271017.6 6.7 6.0
2017-Feb-19 01:00S 59°54' W 170°00'0 0.0 290 / 271017.9 6.9 6.0
2017-Feb-19 00:00S 59°54' W 170°00'0 0.0 280 / 291018.1 7.1 6.0
2017-Feb-18 23:00S 59°54' W 170°00'0 0.0 280 / 291018.2 7.0 6.0
2017-Feb-18 22:00S 59°54' W 170°00'0 0.0 280 / 291018.1 6.9 6.0
2017-Feb-18 21:00S 59°54' W 170°00'0 0.0 290 / 281017.9 6.7 6.0
2017-Feb-18 20:00S 59°54' W 170°00'0 0.0 280 / 291017.8 6.5 6.0
2017-Feb-18 19:00S 59°54' W 170°00'0 0.0 280 / 281017.7 6.5 6.0
2017-Feb-18 18:00S 59°54' W 170°00'0 0.0 290 / 271017.5 6.3 6.0
2017-Feb-18 17:00S 59°54' W 170°00'0 0.0 290 / 261017.4 6.4 6.0
2017-Feb-18 16:00S 59°54' W 170°00'0 0.0 280 / 261017.4 6.5 6.0
2017-Feb-18 15:00S 59°54' W 170°00'0 0.0 280 / 271017.5 6.6 6.0
2017-Feb-18 14:00S 59°54' W 170°00'0 0.0 280 / 301017.3 6.8 6.0
2017-Feb-18 13:00S 59°54' W 170°00'0 0.0 280 / 301016.9 6.9 6.0
2017-Feb-18 12:00S 59°54' W 170°00'0 0.0 280 / 311016.8 7.1 6.0
2017-Feb-18 11:00S 59°54' W 170°00'0 0.0 280 / 321016.4 7.2 6.0
2017-Feb-18 10:00S 59°54' W 170°00'0 0.0 290 / 321015.9 7.3 6.0
2017-Feb-18 09:00S 59°54' W 170°00'0 0.0 290 / 321015.9 7.3 6.0
2017-Feb-18 08:00S 59°54' W 170°00'0 0.0 300 / 321016.1 7.1 6.0
2017-Feb-18 07:00S 59°54' W 170°00'0 0.0 310 / 291016.5 6.6 6.0
2017-Feb-18 06:00S 59°54' W 170°00'0 0.0 310 / 271017.5 6.5 5.9
2017-Feb-18 05:00S 59°54' W 170°00'0 0.0 310 / 241018.6 6.4 5.9
2017-Feb-18 04:00S 59°54' W 170°00'0 0.0 310 / 221019.0 6.2 5.9
2017-Feb-18 03:00S 59°54' W 170°00'0 0.0 310 / 221019.8 6.2 6.0
2017-Feb-18 02:00S 59°54' W 170°00'0 0.0 300 / 241020.4 6.5 6.0
2017-Feb-18 01:00S 59°54' W 170°00'0 0.0 300 / 221020.6 6.5 6.0
2017-Feb-18 00:00S 59°54' W 170°00'0 0.0 300 / 221020.6 6.2 6.0
2017-Feb-17 23:00S 59°54' W 170°00'0 0.0 300 / 201020.7 6.1 5.9
2017-Feb-17 22:00S 59°54' W 170°00'0 0.0 290 / 181020.9 5.9 5.9
2017-Feb-17 21:00S 59°54' W 170°00'0 0.0 280 / 181020.8 6.0 5.9
2017-Feb-17 20:00S 59°54' W 170°00'0 0.0 280 / 181020.7 6.1 5.8
2017-Feb-17 19:00S 59°54' W 170°00'0 0.0 280 / 171020.2 6.1 5.8
2017-Feb-17 18:00S 59°54' W 170°00'6 6.0 270 / 191020.0 5.9 5.9
2017-Feb-17 17:00S 60°00' W 170°00'1212.4 280 / 241018.8 5.8 5.9
2017-Feb-17 16:00S 60°12' W 170°06'1212.0 290 / 231018.1 6.1 5.6
2017-Feb-17 15:00S 60°24' W 170°06'7 6.7 300 / 251017.5 6.0 5.5
2017-Feb-17 14:00S 60°30' W 170°12'1212.4 310 / 261016.9 6.0 5.5
2017-Feb-17 13:00S 60°42' W 170°18'6 6.0 310 / 261016.7 5.9 5.3
2017-Feb-17 12:00S 60°48' W 170°18'0 0.0 310 / 221017.0 5.8 5.0
2017-Feb-17 11:00S 60°48' W 170°18'0 0.0 320 / 221017.2 5.7 5.1
2017-Feb-17 06:00S 60°48' W 170°18'0 0.0 290 / 171016.7 4.5 5.0
2017-Feb-17 05:00S 60°48' W 170°18'0 0.0 280 / 161016.3 4.7 5.1
2017-Feb-17 04:00S 60°48' W 170°18'0 0.0 270 / 181016.0 5.0 5.1
2017-Feb-17 03:00S 60°48' W 170°18'0 0.0 260 / 211015.5 5.0 5.0
2017-Feb-17 02:00S 60°48' W 170°18'0 0.0 260 / 201014.8 4.8 5.0
2017-Feb-17 01:00S 60°48' W 170°18'0 0.0 250 / 231014.1 4.7 5.0
2017-Feb-17 00:00S 60°48' W 170°18'0 0.0 260 / 231013.3 4.2 5.0
2017-Feb-16 23:00S 60°48' W 170°18'0 0.0 260 / 211012.6 4.1 5.0
2017-Feb-16 22:00S 60°48' W 170°18'0 0.0 250 / 181011.9 3.8 5.0
2017-Feb-16 21:00S 60°48' W 170°18'0 0.0 240 / 171011.0 3.4 5.0
2017-Feb-16 20:00S 60°48' W 170°18'0 0.0 230 / 161009.9 3.3 5.0
2017-Feb-16 19:00S 60°48' W 170°18'0 0.0 230 / 201009.0 2.7 5.0
2017-Feb-16 18:00S 60°48' W 170°18'0 0.0 220 / 211007.9 2.7 5.0
2017-Feb-16 17:00S 60°48' W 170°18'0 0.0 220 / 191007.0 2.3 5.0
2017-Feb-16 16:00S 60°48' W 170°18'0 0.0 240 / 201006.1 2.4 5.0
2017-Feb-16 15:00S 60°48' W 170°18'0 0.0 220 / 201005.3 3.0 5.0
2017-Feb-16 14:00S 60°48' W 170°18'0 0.0 230 / 231004.4 3.2 5.0
2017-Feb-16 13:00S 60°48' W 170°18'0 0.0 220 / 211003.5 2.9 5.0
2017-Feb-16 12:00S 60°48' W 170°18'0 0.0 220 / 211002.3 2.9 5.0
2017-Feb-16 11:00S 60°48' W 170°18'0 0.0 230 / 191001.3 2.6 5.0
2017-Feb-16 10:00S 60°48' W 170°18'0 0.0 220 / 201000.1 3.1 5.0
2017-Feb-16 09:00S 60°48' W 170°18'0 0.0 230 / 21999.3 3.1 5.0
2017-Feb-16 08:00S 60°48' W 170°18'0 0.0 220 / 20998.2 3.3 5.0
2017-Feb-16 07:00S 60°48' W 170°18'0 0.0 220 / 20997.2 3.6 5.0
2017-Feb-16 06:00S 60°48' W 170°18'0 0.0 220 / 21996.2 3.6 5.0
2017-Feb-16 05:00S 60°48' W 170°18'0 0.0 220 / 20995.3 3.7 5.0
2017-Feb-16 04:00S 60°48' W 170°18'0 0.0 220 / 21994.3 3.9 5.1
2017-Feb-16 03:00S 60°48' W 170°18'0 0.0 220 / 20993.3 3.8 5.1
2017-Feb-16 02:00S 60°48' W 170°18'0 0.0 220 / 20992.4 3.7 5.1
2017-Feb-16 01:00S 60°48' W 170°18'1212.3 220 / 18991.4 3.8 5.1
2017-Feb-16 00:00S 61°00' W 170°12'6 6.0 220 / 15990.5 3.6 5.1
2017-Feb-15 23:00S 61°06' W 170°12'1212.3 220 / 15989.7 3.2 4.6
2017-Feb-15 22:00S 61°18' W 170°06'1212.3 220 / 15988.8 3.1 4.2
2017-Feb-15 21:00S 61°30' W 170°00'1212.0 220 / 15987.8 2.8 3.4
2017-Feb-15 20:00S 61°42' W 170°00'7 6.6 220 / 15986.8 2.9 4.1
2017-Feb-15 19:00S 61°48' W 169°54'0 0.0 220 / 18985.8 2.9 4.2
2017-Feb-15 18:00S 61°48' W 169°54'0 0.0 220 / 20985.3 2.9 4.1
2017-Feb-15 17:00S 61°48' W 169°54'0 0.0 220 / 20984.6 3.0 4.1
2017-Feb-15 16:00S 61°48' W 169°54'0 0.0 220 / 19984.1 2.8 4.1
2017-Feb-15 15:00S 61°48' W 169°54'0 0.0 220 / 20983.8 2.7 4.1
2017-Feb-15 14:00S 61°48' W 169°54'0 0.0 230 / 20983.6 2.9 4.1
2017-Feb-15 13:00S 61°48' W 169°54'0 0.0 220 / 19983.1 3.2 4.1
2017-Feb-15 12:00S 61°48' W 169°54'0 0.0 230 / 20982.6 3.2 4.1
2017-Feb-15 11:00S 61°48' W 169°54'0 0.0 230 / 20982.2 3.3 4.1
2017-Feb-15 10:00S 61°48' W 169°54'0 0.0 230 / 18981.9 3.3 4.1
2017-Feb-15 09:00S 61°48' W 169°54'0 0.0 230 / 19981.4 3.3 4.1
2017-Feb-15 08:00S 61°48' W 169°54'0 0.0 230 / 19981.1 3.3 4.1
2017-Feb-15 07:00S 61°48' W 169°54'0 0.0 230 / 19980.7 3.2 4.1
2017-Feb-15 06:00S 61°48' W 169°54'0 0.0 240 / 19980.4 3.2 4.1
2017-Feb-15 05:00S 61°48' W 169°54'0 0.0 240 / 20980.2 3.2 4.1
2017-Feb-15 04:00S 61°48' W 169°54'0 0.0 240 / 20979.9 3.2 4.1
2017-Feb-15 03:00S 61°48' W 169°54'0 0.0 240 / 20979.7 3.3 4.1
2017-Feb-15 02:00S 61°48' W 169°54'0 0.0 240 / 22979.4 3.3 4.1
2017-Feb-15 01:00S 61°48' W 169°54'7 6.6 240 / 23979.2 3.6 4.1
2017-Feb-15 00:00S 61°54' W 169°48'1313.3 240 / 24978.2 3.4 4.1
2017-Feb-14 23:00S 62°06' W 169°36'7 6.6 250 / 26977.0 3.3 4.1
2017-Feb-14 22:00S 62°12' W 169°30'0 0.0 240 / 26976.3 3.1 3.7
2017-Feb-14 21:00S 62°12' W 169°30'0 0.0 240 / 28975.8 2.9 3.8
2017-Feb-14 20:00S 62°12' W 169°30'0 0.0 240 / 29975.3 2.9 4.0
2017-Feb-14 19:00S 62°12' W 169°30'0 0.0 240 / 29974.8 2.8 4.0
2017-Feb-14 18:00S 62°12' W 169°30'0 0.0 240 / 29974.4 2.8 4.0
2017-Feb-14 17:00S 62°12' W 169°30'7 6.6 240 / 30973.8 2.7 4.0
2017-Feb-14 16:00S 62°06' W 169°36'8 8.2 240 / 28973.3 2.8 4.0
2017-Feb-14 15:00S 62°00' W 169°48'1212.3 240 / 28973.3 3.0 4.1
2017-Feb-14 14:00S 61°48' W 169°54'0 0.0 240 / 28973.3 3.4 4.2
2017-Feb-14 13:00S 61°48' W 169°54'0 0.0 240 / 27973.2 3.8 4.2
2017-Feb-14 12:00S 61°48' W 169°54'0 0.0 240 / 25973.0 3.8 4.2
2017-Feb-14 11:00S 61°48' W 169°54'0 0.0 240 / 25972.6 3.8 4.2
2017-Feb-14 10:00S 61°48' W 169°54'0 0.0 230 / 26972.0 3.8 4.2
2017-Feb-14 09:00S 61°48' W 169°54'0 0.0 230 / 26971.7 3.7 4.2
2017-Feb-14 08:00S 61°48' W 169°54'0 0.0 230 / 26971.4 3.7 4.2
2017-Feb-14 07:00S 61°48' W 169°54'0 0.0 220 / 26971.0 3.7 4.2
2017-Feb-14 06:00S 61°48' W 169°54'0 0.0 210 / 29970.6 3.4 4.2
2017-Feb-14 05:00S 61°48' W 169°54'0 0.0 210 / 31970.3 3.4 4.2
2017-Feb-14 04:00S 61°48' W 169°54'0 0.0 200 / 29970.0 3.5 4.2
2017-Feb-14 03:00S 61°48' W 169°54'0 0.0 200 / 26970.1 3.4 4.2
2017-Feb-14 02:00S 61°48' W 169°54'0 0.0 190 / 24970.2 3.3 4.2
2017-Feb-14 01:00S 61°48' W 169°54'0 0.0 190 / 22970.4 3.3 4.2
2017-Feb-14 00:00S 61°48' W 169°54'0 0.0 170 / 22970.7 3.4 4.2
2017-Feb-13 23:00S 61°48' W 169°54'0 0.0 170 / 22971.2 3.6 4.2
2017-Feb-13 22:00S 61°48' W 169°54'0 0.0 170 / 21972.2 3.7 4.2
2017-Feb-13 21:00S 61°48' W 169°54'0 0.0 170 / 19973.0 3.8 4.2
2017-Feb-13 20:00S 61°48' W 169°54'1212.3 170 / 18974.1 5.7 4.2
2017-Feb-13 19:00S 62°00' W 169°48'8 8.2 140 / 15975.5 4.2 4.2
2017-Feb-13 18:00S 62°06' W 169°36'7 6.6 140 / 10976.5 4.1 4.0
2017-Feb-13 17:00S 62°12' W 169°30'0 0.0 110 / 9977.4 3.8 3.9
2017-Feb-13 16:00S 62°12' W 169°30'0 0.0 080 / 8978.4 3.8 3.9
2017-Feb-13 15:00S 62°12' W 169°30'0 0.0 060 / 9979.4 4.0 3.9
2017-Feb-13 14:00S 62°12' W 169°30'0 0.0 030 / 9980.2 4.2 3.9
2017-Feb-13 13:00S 62°12' W 169°30'0 0.0 010 / 11981.1 4.2 3.9
2017-Feb-13 12:00S 62°12' W 169°30'0 0.0 981.5 4.3 3.9
2017-Feb-13 11:00S 62°12' W 169°30'0 0.0 360 / 13981.8 4.4 3.9
2017-Feb-13 10:00S 62°12' W 169°30'0 0.0 981.9 4.4 3.9
2017-Feb-13 09:00S 62°12' W 169°30'6 6.0 360 / 17982.0 4.4 3.9
2017-Feb-13 08:00S 62°18' W 169°30'1212.3 340 / 17981.3 4.5 3.7
2017-Feb-13 07:00S 62°30' W 169°36'1212.0 330 / 17980.5 4.3 3.3
2017-Feb-13 06:00S 62°42' W 169°36'7 6.6 320 / 22979.4 4.4 3.0
2017-Feb-13 05:00S 62°48' W 169°42'1212.0 340 / 22978.4 4.3 2.8
2017-Feb-13 04:00S 63°00' W 169°42'7 6.6 977.9 4.0 2.8
2017-Feb-13 03:00S 63°06' W 169°48'0 0.0 010 / 18977.9 4.0 3.1
2017-Feb-13 02:00S 63°06' W 169°48'0 0.0 978.3 4.2 3.1
2017-Feb-13 01:00S 63°06' W 169°48'0 0.0 010 / 21978.6 4.2 3.1
2017-Feb-13 00:00S 63°06' W 169°48'0 0.0 020 / 21978.8 4.1 3.0
2017-Feb-12 23:00S 63°06' W 169°48'0 0.0 010 / 21979.1 4.3 3.0
2017-Feb-12 22:00S 63°06' W 169°48'0 0.0 020 / 23979.6 4.3 3.0
2017-Feb-12 21:00S 63°06' W 169°48'0 0.0 020 / 23979.9 4.2 3.0
2017-Feb-12 20:00S 63°06' W 169°48'0 0.0 030 / 22980.5 4.2 3.0
2017-Feb-12 19:00S 63°06' W 169°48'0 0.0 030 / 22981.1 4.1 3.0
2017-Feb-12 18:00S 63°06' W 169°48'0 0.0 030 / 21981.7 4.0 3.0
2017-Feb-12 17:00S 63°06' W 169°48'0 0.0 040 / 20982.7 3.8 3.0
2017-Feb-12 16:00S 63°06' W 169°48'0 0.0 050 / 19983.8 3.6 3.0
2017-Feb-12 15:00S 63°06' W 169°48'0 0.0 050 / 20985.3 3.6 3.0
2017-Feb-12 14:00S 63°06' W 169°48'0 0.0 050 / 19986.9 3.6 3.0
2017-Feb-12 13:00S 63°06' W 169°48'0 0.0 050 / 21988.2 3.7 3.0
2017-Feb-12 12:00S 63°06' W 169°48'0 0.0 040 / 21989.6 3.7 3.0
2017-Feb-12 11:00S 63°06' W 169°48'0 0.0 040 / 22990.5 3.8 3.0
2017-Feb-12 10:00S 63°06' W 169°48'0 0.0 030 / 23991.5 4.0 3.0
2017-Feb-12 09:00S 63°06' W 169°48'0 0.0 030 / 23992.2 4.1 3.0
2017-Feb-12 08:00S 63°06' W 169°48'0 0.0 020 / 23992.8 4.2 3.0
2017-Feb-12 07:00S 63°06' W 169°48'0 0.0 020 / 21993.1 4.0 3.0
2017-Feb-12 06:00S 63°06' W 169°48'0 0.0 010 / 23993.9 4.2 3.0
2017-Feb-12 05:00S 63°06' W 169°48'0 0.0 010 / 23994.0 4.1 3.0
2017-Feb-12 04:00S 63°06' W 169°48'0 0.0 010 / 23994.2 4.1 3.0
2017-Feb-12 03:00S 63°06' W 169°48'0 0.0 010 / 23994.5 4.1 3.0
2017-Feb-12 02:00S 63°06' W 169°48'0 0.0 010 / 23994.9 4.1 3.0
2017-Feb-12 01:00S 63°06' W 169°48'0 0.0 020 / 22995.1 3.6 3.0
2017-Feb-12 00:00S 63°06' W 169°48'0 0.0 030 / 18995.6 3.2 3.0
2017-Feb-11 23:00S 63°06' W 169°48'0 0.0 020 / 19996.3 3.5 3.0
2017-Feb-11 22:00S 63°06' W 169°48'0 0.0 020 / 20996.7 3.6 3.0
2017-Feb-11 21:00S 63°06' W 169°48'0 0.0 010 / 19997.0 3.6 3.0
2017-Feb-11 20:00S 63°06' W 169°48'0 0.0 360 / 20997.2 3.7 3.0
2017-Feb-11 19:00S 63°06' W 169°48'0 0.0 360 / 20997.2 3.5 3.0
2017-Feb-11 18:00S 63°06' W 169°48'0 0.0 360 / 19997.0 3.5 2.9
2017-Feb-11 17:00S 63°06' W 169°48'0 0.0 350 / 19997.0 3.5 2.9
2017-Feb-11 16:00S 63°06' W 169°48'0 0.0 350 / 18997.2 3.4 2.9
2017-Feb-11 15:00S 63°06' W 169°48'0 0.0 340 / 17997.2 3.6 2.9
2017-Feb-11 14:00S 63°06' W 169°48'3 2.7 330 / 18996.8 3.6 2.9
2017-Feb-11 13:00S 63°06' W 169°54'1313.2 330 / 19996.4 3.6 3.0
2017-Feb-11 12:00S 63°18' W 170°06'1010.1 330 / 20995.7 3.7 3.0
2017-Feb-11 11:00S 63°24' W 170°24'1414.4 330 / 19995.1 3.6 3.0
2017-Feb-11 10:00S 63°36' W 170°42'8 8.0 994.8 3.5 3.2
2017-Feb-11 09:00S 63°42' W 170°54'1313.1 360 / 14994.6 3.6 3.1
2017-Feb-11 08:00S 63°54' W 171°06'1414.4 350 / 14994.2 3.5 3.0
2017-Feb-11 07:00S 64°06' W 171°24'1313.1 350 / 13993.8 3.2 2.8
2017-Feb-11 06:00S 64°18' W 171°36'1414.3 360 / 10993.4 3.0 3.0
2017-Feb-11 05:00S 64°30' W 171°54'1313.1 030 / 13993.1 2.6 2.4
2017-Feb-11 04:00S 64°42' W 172°06'1313.0 060 / 20993.0 1.5 2.3
2017-Feb-11 03:00S 64°54' W 172°18'8 7.9 070 / 24993.2 1.0 2.2
2017-Feb-11 02:00S 65°00' W 172°30'1313.0 070 / 26993.3 0.6 2.5
2017-Feb-11 01:00S 65°12' W 172°42'1313.0 070 / 26993.8 0.4 2.5
2017-Feb-11 00:00S 65°24' W 172°54'10 9.6 070 / 25994.4 0.7 2.1
2017-Feb-10 23:00S 65°30' W 173°12'1313.0 070 / 24995.0 0.4 1.7
2017-Feb-10 22:00S 65°42' W 173°24'1414.1 080 / 22995.4 -0.0 1.7
2017-Feb-10 21:00S 65°54' W 173°42'1313.0 080 / 21995.9 -0.2 1.8
2017-Feb-10 20:00S 66°06' W 173°54'1414.0 080 / 20996.3 -0.2 2.1
2017-Feb-10 19:00S 66°18' W 174°12'1312.9 080 / 18996.7 -0.1 2.4
2017-Feb-10 18:00S 66°30' W 174°24'1414.0 090 / 16997.3 -0.3 1.5
2017-Feb-10 17:00S 66°42' W 174°42'8 7.6 090 / 14997.8 -0.4 1.7
2017-Feb-10 16:00S 66°48' W 174°54'1413.9 080 / 11998.1 -0.5 1.7
2017-Feb-10 15:00S 67°00' W 175°12'1312.9 090 / 10998.4 -0.5 1.4
2017-Feb-10 14:00S 67°12' W 175°24'1413.9 100 / 8998.7 -0.7 1.5
2017-Feb-10 13:00S 67°24' W 175°42'1413.8 130 / 6999.1 -1.2 0.9
2017-Feb-10 12:00S 67°36' W 176°00'1312.8 160 / 5999.4 -1.5 0.5
2017-Feb-10 11:00S 67°48' W 176°12'1413.8 180 / 3999.5 -1.6 0.1
2017-Feb-10 10:00S 68°00' W 176°30'1413.8 190 / 3999.6 -1.7 -0.0
2017-Feb-10 09:00S 68°12' W 176°48'1413.7 200 / 5999.4 -1.4 -0.0
2017-Feb-10 08:00S 68°24' W 177°06'7 7.4 220 / 7999.2 -1.0 -0.1
2017-Feb-10 07:00S 68°30' W 177°18'1413.7 230 / 9999.0 -0.7 -0.1
2017-Feb-10 06:00S 68°42' W 177°36'1413.7 220 / 10998.8 0.2 -0.1
2017-Feb-10 05:00S 68°54' W 177°54'1413.6 220 / 10998.6 0.2 -0.3
2017-Feb-10 04:00S 69°06' W 178°12'1413.6 230 / 11998.4 -0.0 -0.4
2017-Feb-10 03:00S 69°18' W 178°30'1413.6 220 / 12998.4 -0.1 -0.4
2017-Feb-10 02:00S 69°30' W 178°48'1312.7 230 / 11998.5 -0.4 -0.4
2017-Feb-10 01:00S 69°42' W 179°00'1413.5 230 / 12998.5 -0.4 -0.4
2017-Feb-10 00:00S 69°54' W 179°18'9 8.6 220 / 12998.2 -0.4 -0.5
2017-Feb-09 23:00S 70°00' W 179°36'34333433.1 220 / 12997.8 -0.2 -0.6
2017-Feb-09 22:00S 70°12' W 011°30'38673867.2 220 / 12997.7 -0.1 -0.6
2017-Feb-09 21:00S 70°24' E 179°42'1313.4 220 / 12997.4 0.1 -0.6
2017-Feb-09 20:00S 70°36' E 179°24'1414.4 210 / 13997.3 0.5 -0.8
2017-Feb-09 19:00S 70°48' E 179°00'1313.4 210 / 15997.3 0.1 -0.8
2017-Feb-09 18:00S 71°00' E 178°42'   210 / 15997.2 -0.0 -0.8
Track history (hours):
 
Tides and Currents Weather Stations Pressure Air Temp Water Temp Dewpoint Dewpoint Depression Visibility Wind Speed Wind Dir Waves Ship Positions

Oceanographic research ship Nathaniel B. Palmer (USA)

Contact: Ethan Norris, ethan.norris.contractor@usap.gov

Detailed information on ship capabilities available from University of Delaware's Ocean Information Center and ARCUS's ALIAS (Arctic Logistics Information and Support) project.

Owner: OFFSHORE SERVICE VESSELS, GALLIANO, LA. More information available from US FCC via Universal Licensing System and Coast Guard Vessel Documentation Center.

Last reported at 2017-Feb-19 18:00 UTC. Time now 2017-Feb-19 18:41 UTC.
Position S 59°00' W 170°00'.

Type: Other ship. MMSI: 366610000.

Wind from 280 at 29 knots

Barometer 1011.1 mb
Air temperature 6.9 ° C
Water temperature 6.4 ° C

Date/timePositionNaut miles runAvg speedWind from/ knotsBaromVisibWave heightAir tempDewpointWater temp
2017-Feb-19 18:00S 59°00' W 170°00'6 6.0 280 / 291011.1 6.9 6.4
2017-Feb-19 17:00S 59°06' W 170°00'1212.0 280 / 301010.8 6.8 6.4
2017-Feb-19 16:00S 59°18' W 170°00'6 6.0 290 / 291010.7 6.8 6.3
2017-Feb-19 15:00S 59°24' W 170°00'1212.0 280 / 291010.9 6.8 6.2
2017-Feb-19 14:00S 59°36' W 170°00'1212.0 280 / 291011.0 6.7 6.1
2017-Feb-19 13:00S 59°48' W 170°00'6 6.0 290 / 291011.1 6.6 6.1
2017-Feb-19 12:00S 59°54' W 170°00'0 0.0 290 / 301011.6 6.7 6.0
2017-Feb-19 11:00S 59°54' W 170°00'0 0.0 290 / 281012.4 6.8 6.0
2017-Feb-19 10:00S 59°54' W 170°00'0 0.0 290 / 291013.1 6.8 5.9
2017-Feb-19 09:00S 59°54' W 170°00'0 0.0 290 / 281013.8 6.8 5.9
2017-Feb-19 08:00S 59°54' W 170°00'0 0.0 300 / 281014.4 6.8 5.9
2017-Feb-19 07:00S 59°54' W 170°00'0 0.0 290 / 271015.0 6.7 5.9
2017-Feb-19 06:00S 59°54' W 170°00'0 0.0 290 / 271015.6 6.7 5.9
2017-Feb-19 05:00S 59°54' W 170°00'0 0.0 290 / 271016.5 6.7 5.9
2017-Feb-19 04:00S 59°54' W 170°00'0 0.0 290 / 261017.0 6.7 5.9
2017-Feb-19 03:00S 59°54' W 170°00'0 0.0 290 / 271017.2 6.7 5.9
2017-Feb-19 02:00S 59°54' W 170°00'0 0.0 290 / 271017.6 6.7 6.0
2017-Feb-19 01:00S 59°54' W 170°00'0 0.0 290 / 271017.9 6.9 6.0
2017-Feb-19 00:00S 59°54' W 170°00'0 0.0 280 / 291018.1 7.1 6.0
2017-Feb-18 23:00S 59°54' W 170°00'0 0.0 280 / 291018.2 7.0 6.0
2017-Feb-18 22:00S 59°54' W 170°00'0 0.0 280 / 291018.1 6.9 6.0
2017-Feb-18 21:00S 59°54' W 170°00'0 0.0 290 / 281017.9 6.7 6.0
2017-Feb-18 20:00S 59°54' W 170°00'0 0.0 280 / 291017.8 6.5 6.0
2017-Feb-18 19:00S 59°54' W 170°00'0 0.0 280 / 281017.7 6.5 6.0
2017-Feb-18 18:00S 59°54' W 170°00'0 0.0 290 / 271017.5 6.3 6.0
2017-Feb-18 17:00S 59°54' W 170°00'0 0.0 290 / 261017.4 6.4 6.0
2017-Feb-18 16:00S 59°54' W 170°00'0 0.0 280 / 261017.4 6.5 6.0
2017-Feb-18 15:00S 59°54' W 170°00'0 0.0 280 / 271017.5 6.6 6.0
2017-Feb-18 14:00S 59°54' W 170°00'0 0.0 280 / 301017.3 6.8 6.0
2017-Feb-18 13:00S 59°54' W 170°00'0 0.0 280 / 301016.9 6.9 6.0
2017-Feb-18 12:00S 59°54' W 170°00'0 0.0 280 / 311016.8 7.1 6.0
2017-Feb-18 11:00S 59°54' W 170°00'0 0.0 280 / 321016.4 7.2 6.0
2017-Feb-18 10:00S 59°54' W 170°00'0 0.0 290 / 321015.9 7.3 6.0
2017-Feb-18 09:00S 59°54' W 170°00'0 0.0 290 / 321015.9 7.3 6.0
2017-Feb-18 08:00S 59°54' W 170°00'0 0.0 300 / 321016.1 7.1 6.0
2017-Feb-18 07:00S 59°54' W 170°00'0 0.0 310 / 291016.5 6.6 6.0
2017-Feb-18 06:00S 59°54' W 170°00'0 0.0 310 / 271017.5 6.5 5.9
2017-Feb-18 05:00S 59°54' W 170°00'0 0.0 310 / 241018.6 6.4 5.9
2017-Feb-18 04:00S 59°54' W 170°00'0 0.0 310 / 221019.0 6.2 5.9
2017-Feb-18 03:00S 59°54' W 170°00'0 0.0 310 / 221019.8 6.2 6.0
2017-Feb-18 02:00S 59°54' W 170°00'0 0.0 300 / 241020.4 6.5 6.0
2017-Feb-18 01:00S 59°54' W 170°00'0 0.0 300 / 221020.6 6.5 6.0
2017-Feb-18 00:00S 59°54' W 170°00'0 0.0 300 / 221020.6 6.2 6.0
2017-Feb-17 23:00S 59°54' W 170°00'0 0.0 300 / 201020.7 6.1 5.9
2017-Feb-17 22:00S 59°54' W 170°00'0 0.0 290 / 181020.9 5.9 5.9
2017-Feb-17 21:00S 59°54' W 170°00'0 0.0 280 / 181020.8 6.0 5.9
2017-Feb-17 20:00S 59°54' W 170°00'0 0.0 280 / 181020.7 6.1 5.8
2017-Feb-17 19:00S 59°54' W 170°00'0 0.0 280 / 171020.2 6.1 5.8
2017-Feb-17 18:00S 59°54' W 170°00'6 6.0 270 / 191020.0 5.9 5.9
2017-Feb-17 17:00S 60°00' W 170°00'1212.4 280 / 241018.8 5.8 5.9
2017-Feb-17 16:00S 60°12' W 170°06'1212.0 290 / 231018.1 6.1 5.6
2017-Feb-17 15:00S 60°24' W 170°06'7 6.7 300 / 251017.5 6.0 5.5
2017-Feb-17 14:00S 60°30' W 170°12'1212.4 310 / 261016.9 6.0 5.5
2017-Feb-17 13:00S 60°42' W 170°18'6 6.0 310 / 261016.7 5.9 5.3
2017-Feb-17 12:00S 60°48' W 170°18'0 0.0 310 / 221017.0 5.8 5.0
2017-Feb-17 11:00S 60°48' W 170°18'0 0.0 320 / 221017.2 5.7 5.1
2017-Feb-17 06:00S 60°48' W 170°18'0 0.0 290 / 171016.7 4.5 5.0
2017-Feb-17 05:00S 60°48' W 170°18'0 0.0 280 / 161016.3 4.7 5.1
2017-Feb-17 04:00S 60°48' W 170°18'0 0.0 270 / 181016.0 5.0 5.1
2017-Feb-17 03:00S 60°48' W 170°18'0 0.0 260 / 211015.5 5.0 5.0
2017-Feb-17 02:00S 60°48' W 170°18'0 0.0 260 / 201014.8 4.8 5.0
2017-Feb-17 01:00S 60°48' W 170°18'0 0.0 250 / 231014.1 4.7 5.0
2017-Feb-17 00:00S 60°48' W 170°18'0 0.0 260 / 231013.3 4.2 5.0
2017-Feb-16 23:00S 60°48' W 170°18'0 0.0 260 / 211012.6 4.1 5.0
2017-Feb-16 22:00S 60°48' W 170°18'0 0.0 250 / 181011.9 3.8 5.0
2017-Feb-16 21:00S 60°48' W 170°18'0 0.0 240 / 171011.0 3.4 5.0
2017-Feb-16 20:00S 60°48' W 170°18'0 0.0 230 / 161009.9 3.3 5.0
2017-Feb-16 19:00S 60°48' W 170°18'0 0.0 230 / 201009.0 2.7 5.0
2017-Feb-16 18:00S 60°48' W 170°18'0 0.0 220 / 211007.9 2.7 5.0
2017-Feb-16 17:00S 60°48' W 170°18'0 0.0 220 / 191007.0 2.3 5.0
2017-Feb-16 16:00S 60°48' W 170°18'0 0.0 240 / 201006.1 2.4 5.0
2017-Feb-16 15:00S 60°48' W 170°18'0 0.0 220 / 201005.3 3.0 5.0
2017-Feb-16 14:00S 60°48' W 170°18'0 0.0 230 / 231004.4 3.2 5.0
2017-Feb-16 13:00S 60°48' W 170°18'0 0.0 220 / 211003.5 2.9 5.0
2017-Feb-16 12:00S 60°48' W 170°18'0 0.0 220 / 211002.3 2.9 5.0
2017-Feb-16 11:00S 60°48' W 170°18'0 0.0 230 / 191001.3 2.6 5.0
2017-Feb-16 10:00S 60°48' W 170°18'0 0.0 220 / 201000.1 3.1 5.0
2017-Feb-16 09:00S 60°48' W 170°18'0 0.0 230 / 21999.3 3.1 5.0
2017-Feb-16 08:00S 60°48' W 170°18'0 0.0 220 / 20998.2 3.3 5.0
2017-Feb-16 07:00S 60°48' W 170°18'0 0.0 220 / 20997.2 3.6 5.0
2017-Feb-16 06:00S 60°48' W 170°18'0 0.0 220 / 21996.2 3.6 5.0
2017-Feb-16 05:00S 60°48' W 170°18'0 0.0 220 / 20995.3 3.7 5.0
2017-Feb-16 04:00S 60°48' W 170°18'0 0.0 220 / 21994.3 3.9 5.1
2017-Feb-16 03:00S 60°48' W 170°18'0 0.0 220 / 20993.3 3.8 5.1
2017-Feb-16 02:00S 60°48' W 170°18'0 0.0 220 / 20992.4 3.7 5.1
2017-Feb-16 01:00S 60°48' W 170°18'1212.3 220 / 18991.4 3.8 5.1
2017-Feb-16 00:00S 61°00' W 170°12'6 6.0 220 / 15990.5 3.6 5.1
2017-Feb-15 23:00S 61°06' W 170°12'1212.3 220 / 15989.7 3.2 4.6
2017-Feb-15 22:00S 61°18' W 170°06'1212.3 220 / 15988.8 3.1 4.2
2017-Feb-15 21:00S 61°30' W 170°00'1212.0 220 / 15987.8 2.8 3.4
2017-Feb-15 20:00S 61°42' W 170°00'7 6.6 220 / 15986.8 2.9 4.1
2017-Feb-15 19:00S 61°48' W 169°54'0 0.0 220 / 18985.8 2.9 4.2
2017-Feb-15 18:00S 61°48' W 169°54'0 0.0 220 / 20985.3 2.9 4.1
2017-Feb-15 17:00S 61°48' W 169°54'0 0.0 220 / 20984.6 3.0 4.1
2017-Feb-15 16:00S 61°48' W 169°54'0 0.0 220 / 19984.1 2.8 4.1
2017-Feb-15 15:00S 61°48' W 169°54'0 0.0 220 / 20983.8 2.7 4.1
2017-Feb-15 14:00S 61°48' W 169°54'0 0.0 230 / 20983.6 2.9 4.1
2017-Feb-15 13:00S 61°48' W 169°54'0 0.0 220 / 19983.1 3.2 4.1
2017-Feb-15 12:00S 61°48' W 169°54'0 0.0 230 / 20982.6 3.2 4.1
2017-Feb-15 11:00S 61°48' W 169°54'0 0.0 230 / 20982.2 3.3 4.1
2017-Feb-15 10:00S 61°48' W 169°54'0 0.0 230 / 18981.9 3.3 4.1
2017-Feb-15 09:00S 61°48' W 169°54'0 0.0 230 / 19981.4 3.3 4.1
2017-Feb-15 08:00S 61°48' W 169°54'0 0.0 230 / 19981.1 3.3 4.1
2017-Feb-15 07:00S 61°48' W 169°54'0 0.0 230 / 19980.7 3.2 4.1
2017-Feb-15 06:00S 61°48' W 169°54'0 0.0 240 / 19980.4 3.2 4.1
2017-Feb-15 05:00S 61°48' W 169°54'0 0.0 240 / 20980.2 3.2 4.1
2017-Feb-15 04:00S 61°48' W 169°54'0 0.0 240 / 20979.9 3.2 4.1
2017-Feb-15 03:00S 61°48' W 169°54'0 0.0 240 / 20979.7 3.3 4.1
2017-Feb-15 02:00S 61°48' W 169°54'0 0.0 240 / 22979.4 3.3 4.1
2017-Feb-15 01:00S 61°48' W 169°54'7 6.6 240 / 23979.2 3.6 4.1
2017-Feb-15 00:00S 61°54' W 169°48'1313.3 240 / 24978.2 3.4 4.1
2017-Feb-14 23:00S 62°06' W 169°36'7 6.6 250 / 26977.0 3.3 4.1
2017-Feb-14 22:00S 62°12' W 169°30'0 0.0 240 / 26976.3 3.1 3.7
2017-Feb-14 21:00S 62°12' W 169°30'0 0.0 240 / 28975.8 2.9 3.8
2017-Feb-14 20:00S 62°12' W 169°30'0 0.0 240 / 29975.3 2.9 4.0
2017-Feb-14 19:00S 62°12' W 169°30'0 0.0 240 / 29974.8 2.8 4.0
2017-Feb-14 18:00S 62°12' W 169°30'0 0.0 240 / 29974.4 2.8 4.0
2017-Feb-14 17:00S 62°12' W 169°30'7 6.6 240 / 30973.8 2.7 4.0
2017-Feb-14 16:00S 62°06' W 169°36'8 8.2 240 / 28973.3 2.8 4.0
2017-Feb-14 15:00S 62°00' W 169°48'1212.3 240 / 28973.3 3.0 4.1
2017-Feb-14 14:00S 61°48' W 169°54'0 0.0 240 / 28973.3 3.4 4.2
2017-Feb-14 13:00S 61°48' W 169°54'0 0.0 240 / 27973.2 3.8 4.2
2017-Feb-14 12:00S 61°48' W 169°54'0 0.0 240 / 25973.0 3.8 4.2
2017-Feb-14 11:00S 61°48' W 169°54'0 0.0 240 / 25972.6 3.8 4.2
2017-Feb-14 10:00S 61°48' W 169°54'0 0.0 230 / 26972.0 3.8 4.2
2017-Feb-14 09:00S 61°48' W 169°54'0 0.0 230 / 26971.7 3.7 4.2
2017-Feb-14 08:00S 61°48' W 169°54'0 0.0 230 / 26971.4 3.7 4.2
2017-Feb-14 07:00S 61°48' W 169°54'0 0.0 220 / 26971.0 3.7 4.2
2017-Feb-14 06:00S 61°48' W 169°54'0 0.0 210 / 29970.6 3.4 4.2
2017-Feb-14 05:00S 61°48' W 169°54'0 0.0 210 / 31970.3 3.4 4.2
2017-Feb-14 04:00S 61°48' W 169°54'0 0.0 200 / 29970.0 3.5 4.2
2017-Feb-14 03:00S 61°48' W 169°54'0 0.0 200 / 26970.1 3.4 4.2
2017-Feb-14 02:00S 61°48' W 169°54'0 0.0 190 / 24970.2 3.3 4.2
2017-Feb-14 01:00S 61°48' W 169°54'0 0.0 190 / 22970.4 3.3 4.2
2017-Feb-14 00:00S 61°48' W 169°54'0 0.0 170 / 22970.7 3.4 4.2
2017-Feb-13 23:00S 61°48' W 169°54'0 0.0 170 / 22971.2 3.6 4.2
2017-Feb-13 22:00S 61°48' W 169°54'0 0.0 170 / 21972.2 3.7 4.2
2017-Feb-13 21:00S 61°48' W 169°54'0 0.0 170 / 19973.0 3.8 4.2
2017-Feb-13 20:00S 61°48' W 169°54'1212.3 170 / 18974.1 5.7 4.2
2017-Feb-13 19:00S 62°00' W 169°48'8 8.2 140 / 15975.5 4.2 4.2
2017-Feb-13 18:00S 62°06' W 169°36'7 6.6 140 / 10976.5 4.1 4.0
2017-Feb-13 17:00S 62°12' W 169°30'0 0.0 110 / 9977.4 3.8 3.9
2017-Feb-13 16:00S 62°12' W 169°30'0 0.0 080 / 8978.4 3.8 3.9
2017-Feb-13 15:00S 62°12' W 169°30'0 0.0 060 / 9979.4 4.0 3.9
2017-Feb-13 14:00S 62°12' W 169°30'0 0.0 030 / 9980.2 4.2 3.9
2017-Feb-13 13:00S 62°12' W 169°30'0 0.0 010 / 11981.1 4.2 3.9
2017-Feb-13 12:00S 62°12' W 169°30'0 0.0 981.5 4.3 3.9
2017-Feb-13 11:00S 62°12' W 169°30'0 0.0 360 / 13981.8 4.4 3.9
2017-Feb-13 10:00S 62°12' W 169°30'0 0.0 981.9 4.4 3.9
2017-Feb-13 09:00S 62°12' W 169°30'6 6.0 360 / 17982.0 4.4 3.9
2017-Feb-13 08:00S 62°18' W 169°30'1212.3 340 / 17981.3 4.5 3.7
2017-Feb-13 07:00S 62°30' W 169°36'1212.0 330 / 17980.5 4.3 3.3
2017-Feb-13 06:00S 62°42' W 169°36'7 6.6 320 / 22979.4 4.4 3.0
2017-Feb-13 05:00S 62°48' W 169°42'1212.0 340 / 22978.4 4.3 2.8
2017-Feb-13 04:00S 63°00' W 169°42'7 6.6 977.9 4.0 2.8
2017-Feb-13 03:00S 63°06' W 169°48'0 0.0 010 / 18977.9 4.0 3.1
2017-Feb-13 02:00S 63°06' W 169°48'0 0.0 978.3 4.2 3.1
2017-Feb-13 01:00S 63°06' W 169°48'0 0.0 010 / 21978.6 4.2 3.1
2017-Feb-13 00:00S 63°06' W 169°48'0 0.0 020 / 21978.8 4.1 3.0
2017-Feb-12 23:00S 63°06' W 169°48'0 0.0 010 / 21979.1 4.3 3.0
2017-Feb-12 22:00S 63°06' W 169°48'0 0.0 020 / 23979.6 4.3 3.0
2017-Feb-12 21:00S 63°06' W 169°48'0 0.0 020 / 23979.9 4.2 3.0
2017-Feb-12 20:00S 63°06' W 169°48'0 0.0 030 / 22980.5 4.2 3.0
2017-Feb-12 19:00S 63°06' W 169°48'0 0.0 030 / 22981.1 4.1 3.0
2017-Feb-12 18:00S 63°06' W 169°48'0 0.0 030 / 21981.7 4.0 3.0
2017-Feb-12 17:00S 63°06' W 169°48'0 0.0 040 / 20982.7 3.8 3.0
2017-Feb-12 16:00S 63°06' W 169°48'0 0.0 050 / 19983.8 3.6 3.0
2017-Feb-12 15:00S 63°06' W 169°48'0 0.0 050 / 20985.3 3.6 3.0
2017-Feb-12 14:00S 63°06' W 169°48'0 0.0 050 / 19986.9 3.6 3.0
2017-Feb-12 13:00S 63°06' W 169°48'0 0.0 050 / 21988.2 3.7 3.0
2017-Feb-12 12:00S 63°06' W 169°48'0 0.0 040 / 21989.6 3.7 3.0
2017-Feb-12 11:00S 63°06' W 169°48'0 0.0 040 / 22990.5 3.8 3.0
2017-Feb-12 10:00S 63°06' W 169°48'0 0.0 030 / 23991.5 4.0 3.0
2017-Feb-12 09:00S 63°06' W 169°48'0 0.0 030 / 23992.2 4.1 3.0
2017-Feb-12 08:00S 63°06' W 169°48'0 0.0 020 / 23992.8 4.2 3.0
2017-Feb-12 07:00S 63°06' W 169°48'0 0.0 020 / 21993.1 4.0 3.0
2017-Feb-12 06:00S 63°06' W 169°48'0 0.0 010 / 23993.9 4.2 3.0
2017-Feb-12 05:00S 63°06' W 169°48'0 0.0 010 / 23994.0 4.1 3.0
2017-Feb-12 04:00S 63°06' W 169°48'0 0.0 010 / 23994.2 4.1 3.0
2017-Feb-12 03:00S 63°06' W 169°48'0 0.0 010 / 23994.5 4.1 3.0
2017-Feb-12 02:00S 63°06' W 169°48'0 0.0 010 / 23994.9 4.1 3.0
2017-Feb-12 01:00S 63°06' W 169°48'0 0.0 020 / 22995.1 3.6 3.0
2017-Feb-12 00:00S 63°06' W 169°48'0 0.0 030 / 18995.6 3.2 3.0
2017-Feb-11 23:00S 63°06' W 169°48'0 0.0 020 / 19996.3 3.5 3.0
2017-Feb-11 22:00S 63°06' W 169°48'0 0.0 020 / 20996.7 3.6 3.0
2017-Feb-11 21:00S 63°06' W 169°48'0 0.0 010 / 19997.0 3.6 3.0
2017-Feb-11 20:00S 63°06' W 169°48'0 0.0 360 / 20997.2 3.7 3.0
2017-Feb-11 19:00S 63°06' W 169°48'0 0.0 360 / 20997.2 3.5 3.0
2017-Feb-11 18:00S 63°06' W 169°48'0 0.0 360 / 19997.0 3.5 2.9
2017-Feb-11 17:00S 63°06' W 169°48'0 0.0 350 / 19997.0 3.5 2.9
2017-Feb-11 16:00S 63°06' W 169°48'0 0.0 350 / 18997.2 3.4 2.9
2017-Feb-11 15:00S 63°06' W 169°48'0 0.0 340 / 17997.2 3.6 2.9
2017-Feb-11 14:00S 63°06' W 169°48'3 2.7 330 / 18996.8 3.6 2.9
2017-Feb-11 13:00S 63°06' W 169°54'1313.2 330 / 19996.4 3.6 3.0
2017-Feb-11 12:00S 63°18' W 170°06'1010.1 330 / 20995.7 3.7 3.0
2017-Feb-11 11:00S 63°24' W 170°24'1414.4 330 / 19995.1 3.6 3.0
2017-Feb-11 10:00S 63°36' W 170°42'8 8.0 994.8 3.5 3.2
2017-Feb-11 09:00S 63°42' W 170°54'1313.1 360 / 14994.6 3.6 3.1
2017-Feb-11 08:00S 63°54' W 171°06'1414.4 350 / 14994.2 3.5 3.0
2017-Feb-11 07:00S 64°06' W 171°24'1313.1 350 / 13993.8 3.2 2.8
2017-Feb-11 06:00S 64°18' W 171°36'1414.3 360 / 10993.4 3.0 3.0
2017-Feb-11 05:00S 64°30' W 171°54'1313.1 030 / 13993.1 2.6 2.4
2017-Feb-11 04:00S 64°42' W 172°06'1313.0 060 / 20993.0 1.5 2.3
2017-Feb-11 03:00S 64°54' W 172°18'8 7.9 070 / 24993.2 1.0 2.2
2017-Feb-11 02:00S 65°00' W 172°30'1313.0 070 / 26993.3 0.6 2.5
2017-Feb-11 01:00S 65°12' W 172°42'1313.0 070 / 26993.8 0.4 2.5
2017-Feb-11 00:00S 65°24' W 172°54'10 9.6 070 / 25994.4 0.7 2.1
2017-Feb-10 23:00S 65°30' W 173°12'1313.0 070 / 24995.0 0.4 1.7
2017-Feb-10 22:00S 65°42' W 173°24'1414.1 080 / 22995.4 -0.0 1.7
2017-Feb-10 21:00S 65°54' W 173°42'1313.0 080 / 21995.9 -0.2 1.8
2017-Feb-10 20:00S 66°06' W 173°54'1414.0 080 / 20996.3 -0.2 2.1
2017-Feb-10 19:00S 66°18' W 174°12'1312.9 080 / 18996.7 -0.1 2.4
2017-Feb-10 18:00S 66°30' W 174°24'1414.0 090 / 16997.3 -0.3 1.5
2017-Feb-10 17:00S 66°42' W 174°42'8 7.6 090 / 14997.8 -0.4 1.7
2017-Feb-10 16:00S 66°48' W 174°54'1413.9 080 / 11998.1 -0.5 1.7
2017-Feb-10 15:00S 67°00' W 175°12'1312.9 090 / 10998.4 -0.5 1.4
2017-Feb-10 14:00S 67°12' W 175°24'1413.9 100 / 8998.7 -0.7 1.5
2017-Feb-10 13:00S 67°24' W 175°42'1413.8 130 / 6999.1 -1.2 0.9
2017-Feb-10 12:00S 67°36' W 176°00'1312.8 160 / 5999.4 -1.5 0.5
2017-Feb-10 11:00S 67°48' W 176°12'1413.8 180 / 3999.5 -1.6 0.1
2017-Feb-10 10:00S 68°00' W 176°30'1413.8 190 / 3999.6 -1.7 -0.0
2017-Feb-10 09:00S 68°12' W 176°48'1413.7 200 / 5999.4 -1.4 -0.0
2017-Feb-10 08:00S 68°24' W 177°06'7 7.4 220 / 7999.2 -1.0 -0.1
2017-Feb-10 07:00S 68°30' W 177°18'1413.7 230 / 9999.0 -0.7 -0.1
2017-Feb-10 06:00S 68°42' W 177°36'1413.7 220 / 10998.8 0.2 -0.1
2017-Feb-10 05:00S 68°54' W 177°54'1413.6 220 / 10998.6 0.2 -0.3
2017-Feb-10 04:00S 69°06' W 178°12'1413.6 230 / 11998.4 -0.0 -0.4
2017-Feb-10 03:00S 69°18' W 178°30'1413.6 220 / 12998.4 -0.1 -0.4
2017-Feb-10 02:00S 69°30' W 178°48'1312.7 230 / 11998.5 -0.4 -0.4
2017-Feb-10 01:00S 69°42' W 179°00'1413.5 230 / 12998.5 -0.4 -0.4
2017-Feb-10 00:00S 69°54' W 179°18'9 8.6 220 / 12998.2 -0.4 -0.5
2017-Feb-09 23:00S 70°00' W 179°36'34333433.1 220 / 12997.8 -0.2 -0.6
2017-Feb-09 22:00S 70°12' W 011°30'38673867.2 220 / 12997.7 -0.1 -0.6
2017-Feb-09 21:00S 70°24' E 179°42'1313.4 220 / 12997.4 0.1 -0.6
2017-Feb-09 20:00S 70°36' E 179°24'1414.4 210 / 13997.3 0.5 -0.8
2017-Feb-09 19:00S 70°48' E 179°00'1313.4 210 / 15997.3 0.1 -0.8
2017-Feb-09 18:00S 71°00' E 178°42'   210 / 15997.2 -0.0 -0.8

Dump ship's entire track history